sensor_id;sensor_type;location;lat;lon;timestamp;temperature;humidity
10433;DHT22;5263;48.680;9.004;2023-09-08T00:02:04;14.80;99.90
10433;DHT22;5263;48.680;9.004;2023-09-08T00:04:30;14.70;99.90
10433;DHT22;5263;48.680;9.004;2023-09-08T00:06:55;14.60;99.90
10433;DHT22;5263;48.680;9.004;2023-09-08T00:09:21;14.60;99.90
10433;DHT22;5263;48.680;9.004;2023-09-08T00:11:46;14.60;99.90
10433;DHT22;5263;48.680;9.004;2023-09-08T00:14:12;14.60;99.90
10433;DHT22;5263;48.680;9.004;2023-09-08T00:16:37;14.60;99.90
10433;DHT22;5263;48.680;9.004;2023-09-08T00:19:04;14.40;99.90
10433;DHT22;5263;48.680;9.004;2023-09-08T00:21:30;14.70;99.90
10433;DHT22;5263;48.680;9.004;2023-09-08T00:23:55;14.50;99.90
10433;DHT22;5263;48.680;9.004;2023-09-08T00:26:22;14.40;99.90
10433;DHT22;5263;48.680;9.004;2023-09-08T00:28:48;14.30;99.90
10433;DHT22;5263;48.680;9.004;2023-09-08T00:31:13;14.20;99.90
10433;DHT22;5263;48.680;9.004;2023-09-08T00:33:39;14.30;99.90
10433;DHT22;5263;48.680;9.004;2023-09-08T00:36:06;14.40;99.90
10433;DHT22;5263;48.680;9.004;2023-09-08T00:38:32;14.20;99.90
10433;DHT22;5263;48.680;9.004;2023-09-08T00:40:57;14.30;99.90
10433;DHT22;5263;48.680;9.004;2023-09-08T00:43:24;14.20;99.90
10433;DHT22;5263;48.680;9.004;2023-09-08T00:45:50;14.30;99.90
10433;DHT22;5263;48.680;9.004;2023-09-08T00:48:15;14.40;99.90
10433;DHT22;5263;48.680;9.004;2023-09-08T00:50:41;14.30;99.90
10433;DHT22;5263;48.680;9.004;2023-09-08T00:53:07;14.40;99.90
10433;DHT22;5263;48.680;9.004;2023-09-08T00:55:34;14.50;99.90
10433;DHT22;5263;48.680;9.004;2023-09-08T00:58:00;14.40;99.90
10433;DHT22;5263;48.680;9.004;2023-09-08T01:00:27;14.20;99.90
10433;DHT22;5263;48.680;9.004;2023-09-08T01:02:52;14.10;99.90
10433;DHT22;5263;48.680;9.004;2023-09-08T01:05:19;14.50;99.90
10433;DHT22;5263;48.680;9.004;2023-09-08T01:07:46;14.40;99.90
10433;DHT22;5263;48.680;9.004;2023-09-08T01:10:13;14.40;99.90
10433;DHT22;5263;48.680;9.004;2023-09-08T01:12:39;14.40;99.90
10433;DHT22;5263;48.680;9.004;2023-09-08T01:15:05;14.30;99.90
10433;DHT22;5263;48.680;9.004;2023-09-08T01:17:31;14.30;99.90
10433;DHT22;5263;48.680;9.004;2023-09-08T01:25:28;14.20;99.90
10433;DHT22;5263;48.680;9.004;2023-09-08T01:27:57;14.00;99.90
10433;DHT22;5263;48.680;9.004;2023-09-08T01:30:26;14.10;99.90
10433;DHT22;5263;48.680;9.004;2023-09-08T01:32:54;14.20;99.90
10433;DHT22;5263;48.680;9.004;2023-09-08T01:35:21;14.20;99.90
10433;DHT22;5263;48.680;9.004;2023-09-08T01:37:48;14.20;99.90
10433;DHT22;5263;48.680;9.004;2023-09-08T01:40:14;14.00;99.90
10433;DHT22;5263;48.680;9.004;2023-09-08T01:42:40;14.20;99.90
10433;DHT22;5263;48.680;9.004;2023-09-08T01:45:06;14.10;99.90
10433;DHT22;5263;48.680;9.004;2023-09-08T01:47:33;14.00;99.90
10433;DHT22;5263;48.680;9.004;2023-09-08T01:49:59;14.00;99.90
10433;DHT22;5263;48.680;9.004;2023-09-08T01:52:24;13.80;99.90
10433;DHT22;5263;48.680;9.004;2023-09-08T01:54:50;13.80;99.90
10433;DHT22;5263;48.680;9.004;2023-09-08T01:57:17;13.60;99.90
10433;DHT22;5263;48.680;9.004;2023-09-08T01:59:42;13.60;99.90
10433;DHT22;5263;48.680;9.004;2023-09-08T02:02:08;13.60;99.90
10433;DHT22;5263;48.680;9.004;2023-09-08T02:04:34;13.40;99.90
10433;DHT22;5263;48.680;9.004;2023-09-08T02:06:59;13.50;99.90
10433;DHT22;5263;48.680;9.004;2023-09-08T02:09:32;13.50;99.90
10433;DHT22;5263;48.680;9.004;2023-09-08T02:11:58;13.60;99.90
10433;DHT22;5263;48.680;9.004;2023-09-08T02:14:24;13.50;99.90
10433;DHT22;5263;48.680;9.004;2023-09-08T02:16:49;13.40;99.90
10433;DHT22;5263;48.680;9.004;2023-09-08T02:19:15;13.40;99.90
10433;DHT22;5263;48.680;9.004;2023-09-08T02:21:40;13.40;99.90
10433;DHT22;5263;48.680;9.004;2023-09-08T02:24:06;13.50;99.90
10433;DHT22;5263;48.680;9.004;2023-09-08T02:26:32;13.60;99.90
10433;DHT22;5263;48.680;9.004;2023-09-08T02:28:59;13.60;99.90
10433;DHT22;5263;48.680;9.004;2023-09-08T02:31:26;13.70;99.90
10433;DHT22;5263;48.680;9.004;2023-09-08T02:33:52;13.60;99.90
10433;DHT22;5263;48.680;9.004;2023-09-08T02:36:18;13.40;99.90
10433;DHT22;5263;48.680;9.004;2023-09-08T02:38:53;13.50;99.90
10433;DHT22;5263;48.680;9.004;2023-09-08T02:41:19;13.30;99.90
10433;DHT22;5263;48.680;9.004;2023-09-08T02:43:45;13.50;99.90
10433;DHT22;5263;48.680;9.004;2023-09-08T02:46:11;13.50;99.90
10433;DHT22;5263;48.680;9.004;2023-09-08T02:48:37;13.50;99.90
10433;DHT22;5263;48.680;9.004;2023-09-08T02:51:03;13.20;99.90
10433;DHT22;5263;48.680;9.004;2023-09-08T02:53:28;13.20;99.90
10433;DHT22;5263;48.680;9.004;2023-09-08T02:55:58;13.10;99.90
10433;DHT22;5263;48.680;9.004;2023-09-08T02:58:24;13.30;99.90
10433;DHT22;5263;48.680;9.004;2023-09-08T03:00:50;13.30;99.90
10433;DHT22;5263;48.680;9.004;2023-09-08T03:03:19;13.30;99.90
10433;DHT22;5263;48.680;9.004;2023-09-08T03:05:45;13.20;99.90
10433;DHT22;5263;48.680;9.004;2023-09-08T03:08:10;13.20;99.90
10433;DHT22;5263;48.680;9.004;2023-09-08T03:10:36;12.90;99.90
10433;DHT22;5263;48.680;9.004;2023-09-08T03:13:05;12.90;99.90
10433;DHT22;5263;48.680;9.004;2023-09-08T03:15:31;12.90;99.90
10433;DHT22;5263;48.680;9.004;2023-09-08T03:17:57;13.00;99.90
10433;DHT22;5263;48.680;9.004;2023-09-08T03:20:26;13.10;99.90
10433;DHT22;5263;48.680;9.004;2023-09-08T03:22:52;13.10;99.90
10433;DHT22;5263;48.680;9.004;2023-09-08T03:25:18;13.00;99.90
10433;DHT22;5263;48.680;9.004;2023-09-08T03:27:44;13.00;99.90
10433;DHT22;5263;48.680;9.004;2023-09-08T03:30:10;13.10;99.90
10433;DHT22;5263;48.680;9.004;2023-09-08T03:32:36;13.10;99.90
10433;DHT22;5263;48.680;9.004;2023-09-08T03:35:02;13.20;99.90
10433;DHT22;5263;48.680;9.004;2023-09-08T03:37:29;13.30;99.90
10433;DHT22;5263;48.680;9.004;2023-09-08T03:39:54;13.10;99.90
10433;DHT22;5263;48.680;9.004;2023-09-08T03:42:20;13.10;99.90
10433;DHT22;5263;48.680;9.004;2023-09-08T03:44:46;12.90;99.90
10433;DHT22;5263;48.680;9.004;2023-09-08T03:47:11;12.90;99.90
10433;DHT22;5263;48.680;9.004;2023-09-08T03:49:37;12.90;99.90
10433;DHT22;5263;48.680;9.004;2023-09-08T03:52:02;12.80;99.90
10433;DHT22;5263;48.680;9.004;2023-09-08T03:54:28;12.80;99.90
10433;DHT22;5263;48.680;9.004;2023-09-08T03:56:53;12.80;99.90
10433;DHT22;5263;48.680;9.004;2023-09-08T03:59:19;12.60;99.90
10433;DHT22;5263;48.680;9.004;2023-09-08T04:01:45;12.50;99.90
10433;DHT22;5263;48.680;9.004;2023-09-08T04:04:10;12.40;99.90
10433;DHT22;5263;48.680;9.004;2023-09-08T04:06:36;12.50;99.90
10433;DHT22;5263;48.680;9.004;2023-09-08T04:09:01;12.60;99.90
10433;DHT22;5263;48.680;9.004;2023-09-08T04:11:27;12.70;99.90
10433;DHT22;5263;48.680;9.004;2023-09-08T04:13:52;12.80;99.90
10433;DHT22;5263;48.680;9.004;2023-09-08T04:16:18;12.90;99.90
10433;DHT22;5263;48.680;9.004;2023-09-08T04:18:44;12.90;99.90
10433;DHT22;5263;48.680;9.004;2023-09-08T04:21:10;13.00;99.90
10433;DHT22;5263;48.680;9.004;2023-09-08T04:23:35;13.00;99.90
10433;DHT22;5263;48.680;9.004;2023-09-08T04:26:01;12.90;99.90
10433;DHT22;5263;48.680;9.004;2023-09-08T04:28:27;13.00;99.90
10433;DHT22;5263;48.680;9.004;2023-09-08T04:30:53;13.10;99.90
10433;DHT22;5263;48.680;9.004;2023-09-08T04:33:19;13.10;99.90
10433;DHT22;5263;48.680;9.004;2023-09-08T04:35:44;13.20;99.90
10433;DHT22;5263;48.680;9.004;2023-09-08T04:38:10;13.00;99.90
10433;DHT22;5263;48.680;9.004;2023-09-08T04:40:39;13.10;99.90
10433;DHT22;5263;48.680;9.004;2023-09-08T04:43:05;13.20;99.90
10433;DHT22;5263;48.680;9.004;2023-09-08T04:45:30;13.30;99.90
10433;DHT22;5263;48.680;9.004;2023-09-08T04:47:56;13.30;99.90
10433;DHT22;5263;48.680;9.004;2023-09-08T04:50:22;13.30;99.90
10433;DHT22;5263;48.680;9.004;2023-09-08T04:52:47;13.40;99.90
10433;DHT22;5263;48.680;9.004;2023-09-08T04:55:13;13.20;99.90
10433;DHT22;5263;48.680;9.004;2023-09-08T04:57:38;13.00;99.90
10433;DHT22;5263;48.680;9.004;2023-09-08T05:00:05;12.90;99.90
10433;DHT22;5263;48.680;9.004;2023-09-08T05:02:30;12.90;99.90
10433;DHT22;5263;48.680;9.004;2023-09-08T05:04:56;12.90;99.90
10433;DHT22;5263;48.680;9.004;2023-09-08T05:07:22;13.00;99.90
10433;DHT22;5263;48.680;9.004;2023-09-08T05:09:47;12.90;99.90
10433;DHT22;5263;48.680;9.004;2023-09-08T05:12:13;13.10;99.90
10433;DHT22;5263;48.680;9.004;2023-09-08T05:14:39;13.30;99.90
10433;DHT22;5263;48.680;9.004;2023-09-08T05:17:04;13.30;99.90
10433;DHT22;5263;48.680;9.004;2023-09-08T05:19:30;13.20;99.90
10433;DHT22;5263;48.680;9.004;2023-09-08T05:21:56;13.30;99.90
10433;DHT22;5263;48.680;9.004;2023-09-08T05:24:22;13.50;99.90
10433;DHT22;5263;48.680;9.004;2023-09-08T05:26:47;13.40;99.90
10433;DHT22;5263;48.680;9.004;2023-09-08T05:29:13;13.40;99.90
10433;DHT22;5263;48.680;9.004;2023-09-08T05:31:39;13.30;99.90
10433;DHT22;5263;48.680;9.004;2023-09-08T05:34:05;13.50;99.90
10433;DHT22;5263;48.680;9.004;2023-09-08T05:36:30;13.50;99.90
10433;DHT22;5263;48.680;9.004;2023-09-08T05:38:59;13.40;99.90
10433;DHT22;5263;48.680;9.004;2023-09-08T05:41:25;13.30;99.90
10433;DHT22;5263;48.680;9.004;2023-09-08T05:43:50;13.50;99.90
10433;DHT22;5263;48.680;9.004;2023-09-08T05:46:16;13.60;99.90
10433;DHT22;5263;48.680;9.004;2023-09-08T05:48:42;13.80;99.90
10433;DHT22;5263;48.680;9.004;2023-09-08T05:51:08;13.90;99.90
10433;DHT22;5263;48.680;9.004;2023-09-08T05:53:33;14.00;99.90
10433;DHT22;5263;48.680;9.004;2023-09-08T05:56:01;14.20;99.90
10433;DHT22;5263;48.680;9.004;2023-09-08T05:58:26;14.20;99.90
10433;DHT22;5263;48.680;9.004;2023-09-08T06:00:53;14.40;99.90
10433;DHT22;5263;48.680;9.004;2023-09-08T06:03:19;14.40;99.90
10433;DHT22;5263;48.680;9.004;2023-09-08T06:05:45;14.50;99.90
10433;DHT22;5263;48.680;9.004;2023-09-08T06:08:10;14.60;99.90
10433;DHT22;5263;48.680;9.004;2023-09-08T06:10:37;14.70;99.90
10433;DHT22;5263;48.680;9.004;2023-09-08T06:13:03;14.70;99.90
10433;DHT22;5263;48.680;9.004;2023-09-08T06:15:29;14.90;99.90
10433;DHT22;5263;48.680;9.004;2023-09-08T06:17:55;15.00;99.90
10433;DHT22;5263;48.680;9.004;2023-09-08T06:20:20;15.20;99.90
10433;DHT22;5263;48.680;9.004;2023-09-08T06:22:47;15.30;99.90
10433;DHT22;5263;48.680;9.004;2023-09-08T06:25:12;15.40;99.90
10433;DHT22;5263;48.680;9.004;2023-09-08T06:27:38;15.50;99.90
10433;DHT22;5263;48.680;9.004;2023-09-08T06:30:04;15.60;99.90
10433;DHT22;5263;48.680;9.004;2023-09-08T06:32:30;15.80;99.90
10433;DHT22;5263;48.680;9.004;2023-09-08T06:34:56;15.90;99.90
10433;DHT22;5263;48.680;9.004;2023-09-08T06:37:21;16.10;99.90
10433;DHT22;5263;48.680;9.004;2023-09-08T06:39:47;16.30;99.90
10433;DHT22;5263;48.680;9.004;2023-09-08T06:42:12;16.50;99.90
10433;DHT22;5263;48.680;9.004;2023-09-08T06:44:38;16.70;99.90
10433;DHT22;5263;48.680;9.004;2023-09-08T06:47:04;16.90;99.90
10433;DHT22;5263;48.680;9.004;2023-09-08T06:49:32;17.00;99.90
10433;DHT22;5263;48.680;9.004;2023-09-08T06:51:58;17.10;99.90
10433;DHT22;5263;48.680;9.004;2023-09-08T06:54:23;17.20;99.90
10433;DHT22;5263;48.680;9.004;2023-09-08T06:56:49;17.30;99.90
10433;DHT22;5263;48.680;9.004;2023-09-08T06:59:14;17.50;99.90
10433;DHT22;5263;48.680;9.004;2023-09-08T07:01:40;17.70;99.90
10433;DHT22;5263;48.680;9.004;2023-09-08T07:04:06;17.80;99.90
10433;DHT22;5263;48.680;9.004;2023-09-08T07:06:31;17.90;99.90
10433;DHT22;5263;48.680;9.004;2023-09-08T07:08:57;17.90;99.90
10433;DHT22;5263;48.680;9.004;2023-09-08T07:11:22;18.20;99.90
10433;DHT22;5263;48.680;9.004;2023-09-08T07:13:48;18.40;99.90
10433;DHT22;5263;48.680;9.004;2023-09-08T07:16:14;18.50;99.90
10433;DHT22;5263;48.680;9.004;2023-09-08T07:18:39;18.60;99.90
10433;DHT22;5263;48.680;9.004;2023-09-08T07:21:05;18.70;99.90
10433;DHT22;5263;48.680;9.004;2023-09-08T07:23:31;19.10;99.90
10433;DHT22;5263;48.680;9.004;2023-09-08T07:25:57;19.10;99.90
10433;DHT22;5263;48.680;9.004;2023-09-08T07:28:22;19.10;99.90
10433;DHT22;5263;48.680;9.004;2023-09-08T07:30:48;19.30;99.90
10433;DHT22;5263;48.680;9.004;2023-09-08T07:33:14;19.70;99.90
10433;DHT22;5263;48.680;9.004;2023-09-08T07:35:40;19.80;99.90
10433;DHT22;5263;48.680;9.004;2023-09-08T07:38:06;19.80;99.90
10433;DHT22;5263;48.680;9.004;2023-09-08T07:40:32;20.00;99.90
10433;DHT22;5263;48.680;9.004;2023-09-08T07:42:58;20.10;99.90
10433;DHT22;5263;48.680;9.004;2023-09-08T07:45:24;20.20;99.90
10433;DHT22;5263;48.680;9.004;2023-09-08T07:47:49;20.30;99.90
10433;DHT22;5263;48.680;9.004;2023-09-08T07:50:17;20.30;99.90
10433;DHT22;5263;48.680;9.004;2023-09-08T07:52:43;20.50;99.90
10433;DHT22;5263;48.680;9.004;2023-09-08T07:55:09;20.50;99.90
10433;DHT22;5263;48.680;9.004;2023-09-08T07:57:35;20.60;99.90
10433;DHT22;5263;48.680;9.004;2023-09-08T08:00:01;20.80;99.90
10433;DHT22;5263;48.680;9.004;2023-09-08T08:02:26;21.00;99.90
10433;DHT22;5263;48.680;9.004;2023-09-08T08:04:52;21.10;99.90
10433;DHT22;5263;48.680;9.004;2023-09-08T08:07:17;21.10;99.90
10433;DHT22;5263;48.680;9.004;2023-09-08T08:09:43;21.10;99.90
10433;DHT22;5263;48.680;9.004;2023-09-08T08:12:09;21.20;99.90
10433;DHT22;5263;48.680;9.004;2023-09-08T08:14:34;21.40;99.90
10433;DHT22;5263;48.680;9.004;2023-09-08T08:17:00;21.50;99.90
10433;DHT22;5263;48.680;9.004;2023-09-08T08:19:26;21.60;99.90
10433;DHT22;5263;48.680;9.004;2023-09-08T08:21:51;21.70;99.90
10433;DHT22;5263;48.680;9.004;2023-09-08T08:24:17;21.80;99.90
10433;DHT22;5263;48.680;9.004;2023-09-08T08:26:42;22.00;99.90
10433;DHT22;5263;48.680;9.004;2023-09-08T08:29:08;22.10;99.90
10433;DHT22;5263;48.680;9.004;2023-09-08T08:31:33;22.20;99.90
10433;DHT22;5263;48.680;9.004;2023-09-08T08:33:59;22.30;99.90
10433;DHT22;5263;48.680;9.004;2023-09-08T08:36:25;22.50;99.90
10433;DHT22;5263;48.680;9.004;2023-09-08T08:38:50;22.70;99.90
10433;DHT22;5263;48.680;9.004;2023-09-08T08:41:16;22.80;99.90
10433;DHT22;5263;48.680;9.004;2023-09-08T08:43:42;22.90;99.90
10433;DHT22;5263;48.680;9.004;2023-09-08T08:46:09;23.10;99.90
10433;DHT22;5263;48.680;9.004;2023-09-08T08:48:37;23.30;99.90
10433;DHT22;5263;48.680;9.004;2023-09-08T08:51:03;23.40;99.90
10433;DHT22;5263;48.680;9.004;2023-09-08T08:53:31;23.50;99.90
10433;DHT22;5263;48.680;9.004;2023-09-08T08:55:58;23.60;99.90
10433;DHT22;5263;48.680;9.004;2023-09-08T08:58:25;23.70;99.90
10433;DHT22;5263;48.680;9.004;2023-09-08T09:00:53;23.70;99.90
10433;DHT22;5263;48.680;9.004;2023-09-08T09:03:20;23.70;99.90
10433;DHT22;5263;48.680;9.004;2023-09-08T09:05:46;23.70;99.90
10433;DHT22;5263;48.680;9.004;2023-09-08T09:08:13;23.60;99.90
10433;DHT22;5263;48.680;9.004;2023-09-08T09:10:39;23.70;99.90
10433;DHT22;5263;48.680;9.004;2023-09-08T09:13:04;23.80;99.90
10433;DHT22;5263;48.680;9.004;2023-09-08T09:15:31;23.80;99.90
10433;DHT22;5263;48.680;9.004;2023-09-08T09:18:07;23.80;99.90
10433;DHT22;5263;48.680;9.004;2023-09-08T09:20:34;23.90;99.90
10433;DHT22;5263;48.680;9.004;2023-09-08T09:23:00;24.10;99.90
10433;DHT22;5263;48.680;9.004;2023-09-08T09:25:28;24.20;99.90
10433;DHT22;5263;48.680;9.004;2023-09-08T09:27:55;24.40;99.90
10433;DHT22;5263;48.680;9.004;2023-09-08T09:30:22;24.40;99.90
10433;DHT22;5263;48.680;9.004;2023-09-08T09:32:48;24.50;99.90
10433;DHT22;5263;48.680;9.004;2023-09-08T09:35:16;24.70;99.90
10433;DHT22;5263;48.680;9.004;2023-09-08T09:37:42;24.60;99.90
10433;DHT22;5263;48.680;9.004;2023-09-08T09:40:08;24.80;99.90
10433;DHT22;5263;48.680;9.004;2023-09-08T09:42:38;25.00;99.90
10433;DHT22;5263;48.680;9.004;2023-09-08T09:45:06;25.20;99.90
10433;DHT22;5263;48.680;9.004;2023-09-08T09:47:32;25.10;99.90
10433;DHT22;5263;48.680;9.004;2023-09-08T09:49:57;25.20;99.90
10433;DHT22;5263;48.680;9.004;2023-09-08T09:52:24;25.70;99.90
10433;DHT22;5263;48.680;9.004;2023-09-08T09:54:52;26.20;99.90
10433;DHT22;5263;48.680;9.004;2023-09-08T09:57:21;26.80;99.90
10433;DHT22;5263;48.680;9.004;2023-09-08T09:59:47;29.10;99.90
10433;DHT22;5263;48.680;9.004;2023-09-08T10:02:17;30.90;99.90
10433;DHT22;5263;48.680;9.004;2023-09-08T10:04:48;33.00;99.90
10433;DHT22;5263;48.680;9.004;2023-09-08T10:07:16;35.90;97.30
10433;DHT22;5263;48.680;9.004;2023-09-08T10:09:41;35.40;92.70
10433;DHT22;5263;48.680;9.004;2023-09-08T10:12:08;38.00;84.00
10433;DHT22;5263;48.680;9.004;2023-09-08T10:14:41;38.40;78.00
10433;DHT22;5263;48.680;9.004;2023-09-08T10:17:10;38.20;75.80
10433;DHT22;5263;48.680;9.004;2023-09-08T10:19:37;38.60;74.90
10433;DHT22;5263;48.680;9.004;2023-09-08T10:22:11;40.00;66.20
10433;DHT22;5263;48.680;9.004;2023-09-08T10:24:38;40.90;62.60
10433;DHT22;5263;48.680;9.004;2023-09-08T10:27:09;36.40;68.40
10433;DHT22;5263;48.680;9.004;2023-09-08T10:29:36;38.40;67.70
10433;DHT22;5263;48.680;9.004;2023-09-08T10:32:02;39.70;64.00
10433;DHT22;5263;48.680;9.004;2023-09-08T10:34:30;39.50;59.70
10433;DHT22;5263;48.680;9.004;2023-09-08T10:36:56;40.20;59.00
10433;DHT22;5263;48.680;9.004;2023-09-08T10:39:33;40.30;58.80
10433;DHT22;5263;48.680;9.004;2023-09-08T10:47:20;37.70;67.90
10433;DHT22;5263;48.680;9.004;2023-09-08T10:49:47;37.40;68.90
10433;DHT22;5263;48.680;9.004;2023-09-08T10:52:13;36.90;68.30
10433;DHT22;5263;48.680;9.004;2023-09-08T10:54:48;36.10;67.40
10433;DHT22;5263;48.680;9.004;2023-09-08T10:57:15;39.10;65.00
10433;DHT22;5263;48.680;9.004;2023-09-08T10:59:45;38.30;62.40
10433;DHT22;5263;48.680;9.004;2023-09-08T11:02:42;37.70;66.40
10433;DHT22;5263;48.680;9.004;2023-09-08T11:05:13;39.80;61.00
10433;DHT22;5263;48.680;9.004;2023-09-08T11:07:44;40.20;58.20
10433;DHT22;5263;48.680;9.004;2023-09-08T11:10:11;39.90;58.80
10433;DHT22;5263;48.680;9.004;2023-09-08T11:12:37;38.00;62.70
10433;DHT22;5263;48.680;9.004;2023-09-08T11:15:05;38.20;63.30
10433;DHT22;5263;48.680;9.004;2023-09-08T11:17:34;37.40;64.60
10433;DHT22;5263;48.680;9.004;2023-09-08T11:20:02;36.50;65.70
10433;DHT22;5263;48.680;9.004;2023-09-08T11:22:34;39.30;58.70
10433;DHT22;5263;48.680;9.004;2023-09-08T11:25:00;38.30;58.80
10433;DHT22;5263;48.680;9.004;2023-09-08T11:27:30;38.20;61.40
10433;DHT22;5263;48.680;9.004;2023-09-08T11:29:56;39.70;57.20
10433;DHT22;5263;48.680;9.004;2023-09-08T11:32:22;37.90;60.60
10433;DHT22;5263;48.680;9.004;2023-09-08T11:34:48;40.90;55.20
10433;DHT22;5263;48.680;9.004;2023-09-08T11:37:15;39.80;59.60
10433;DHT22;5263;48.680;9.004;2023-09-08T11:39:42;39.10;60.20
10433;DHT22;5263;48.680;9.004;2023-09-08T11:42:13;38.60;63.10
10433;DHT22;5263;48.680;9.004;2023-09-08T11:44:39;37.20;57.30
10433;DHT22;5263;48.680;9.004;2023-09-08T11:47:09;36.40;63.70
10433;DHT22;5263;48.680;9.004;2023-09-08T11:49:36;37.30;63.90
10433;DHT22;5263;48.680;9.004;2023-09-08T11:52:03;37.00;61.20
10433;DHT22;5263;48.680;9.004;2023-09-08T11:54:30;39.80;55.20
10433;DHT22;5263;48.680;9.004;2023-09-08T11:56:59;41.50;50.60
10433;DHT22;5263;48.680;9.004;2023-09-08T11:59:26;41.20;49.60
10433;DHT22;5263;48.680;9.004;2023-09-08T12:01:52;42.10;47.30
10433;DHT22;5263;48.680;9.004;2023-09-08T12:04:19;42.50;48.80
10433;DHT22;5263;48.680;9.004;2023-09-08T12:06:52;39.70;50.40
10433;DHT22;5263;48.680;9.004;2023-09-08T12:09:18;40.20;53.70
10433;DHT22;5263;48.680;9.004;2023-09-08T12:11:44;38.50;54.20
10433;DHT22;5263;48.680;9.004;2023-09-08T12:14:11;38.80;56.00
10433;DHT22;5263;48.680;9.004;2023-09-08T12:16:38;41.60;51.20
10433;DHT22;5263;48.680;9.004;2023-09-08T12:19:04;41.70;50.50
10433;DHT22;5263;48.680;9.004;2023-09-08T12:21:29;41.10;50.40
10433;DHT22;5263;48.680;9.004;2023-09-08T12:23:57;42.60;49.80
10433;DHT22;5263;48.680;9.004;2023-09-08T12:26:24;40.20;51.80
10433;DHT22;5263;48.680;9.004;2023-09-08T12:28:50;41.40;51.20
10433;DHT22;5263;48.680;9.004;2023-09-08T12:31:17;41.10;53.20
10433;DHT22;5263;48.680;9.004;2023-09-08T12:33:43;40.50;52.90
10433;DHT22;5263;48.680;9.004;2023-09-08T12:36:13;42.10;50.80
10433;DHT22;5263;48.680;9.004;2023-09-08T12:38:40;41.10;50.30
10433;DHT22;5263;48.680;9.004;2023-09-08T12:41:05;39.90;52.20
10433;DHT22;5263;48.680;9.004;2023-09-08T12:43:31;40.60;52.30
10433;DHT22;5263;48.680;9.004;2023-09-08T12:45:57;42.60;50.90
10433;DHT22;5263;48.680;9.004;2023-09-08T12:48:23;43.20;49.40
10433;DHT22;5263;48.680;9.004;2023-09-08T12:50:49;41.50;52.00
10433;DHT22;5263;48.680;9.004;2023-09-08T12:53:15;41.40;51.20
10433;DHT22;5263;48.680;9.004;2023-09-08T12:55:43;39.20;54.40
10433;DHT22;5263;48.680;9.004;2023-09-08T12:58:08;40.80;52.30
10433;DHT22;5263;48.680;9.004;2023-09-08T13:00:34;41.30;52.00
10433;DHT22;5263;48.680;9.004;2023-09-08T13:02:59;42.60;52.80
10433;DHT22;5263;48.680;9.004;2023-09-08T13:05:27;42.40;53.20
10433;DHT22;5263;48.680;9.004;2023-09-08T13:07:53;42.60;53.20
10433;DHT22;5263;48.680;9.004;2023-09-08T13:10:19;45.90;48.90
10433;DHT22;5263;48.680;9.004;2023-09-08T13:12:45;46.00;48.30
10433;DHT22;5263;48.680;9.004;2023-09-08T13:15:11;43.90;50.20
10433;DHT22;5263;48.680;9.004;2023-09-08T13:17:37;42.30;52.40
10433;DHT22;5263;48.680;9.004;2023-09-08T13:20:03;43.70;49.80
10433;DHT22;5263;48.680;9.004;2023-09-08T13:22:29;42.90;49.30
10433;DHT22;5263;48.680;9.004;2023-09-08T13:24:54;42.40;51.70
10433;DHT22;5263;48.680;9.004;2023-09-08T13:27:20;42.50;51.60
10433;DHT22;5263;48.680;9.004;2023-09-08T13:29:46;42.90;51.30
10433;DHT22;5263;48.680;9.004;2023-09-08T13:32:11;43.60;49.20
10433;DHT22;5263;48.680;9.004;2023-09-08T13:34:37;41.40;51.60
10433;DHT22;5263;48.680;9.004;2023-09-08T13:37:04;39.90;54.90
10433;DHT22;5263;48.680;9.004;2023-09-08T13:39:29;36.40;59.60
10433;DHT22;5263;48.680;9.004;2023-09-08T13:41:56;35.00;61.60
10433;DHT22;5263;48.680;9.004;2023-09-08T13:44:23;36.60;61.50
10433;DHT22;5263;48.680;9.004;2023-09-08T13:46:53;36.60;61.00
10433;DHT22;5263;48.680;9.004;2023-09-08T13:49:19;37.10;60.00
10433;DHT22;5263;48.680;9.004;2023-09-08T13:51:45;35.70;60.90
10433;DHT22;5263;48.680;9.004;2023-09-08T13:54:11;34.20;64.70
10433;DHT22;5263;48.680;9.004;2023-09-08T13:56:41;34.40;66.90
10433;DHT22;5263;48.680;9.004;2023-09-08T13:59:07;34.60;65.30
10433;DHT22;5263;48.680;9.004;2023-09-08T14:01:34;34.20;66.90
10433;DHT22;5263;48.680;9.004;2023-09-08T14:04:00;33.80;67.10
10433;DHT22;5263;48.680;9.004;2023-09-08T14:06:27;33.30;68.70
10433;DHT22;5263;48.680;9.004;2023-09-08T14:08:53;33.50;67.90
10433;DHT22;5263;48.680;9.004;2023-09-08T14:11:18;33.60;67.50
10433;DHT22;5263;48.680;9.004;2023-09-08T14:13:44;33.60;67.60
10433;DHT22;5263;48.680;9.004;2023-09-08T14:16:11;33.60;68.30
10433;DHT22;5263;48.680;9.004;2023-09-08T14:18:37;34.30;66.80
10433;DHT22;5263;48.680;9.004;2023-09-08T14:21:02;34.60;67.10
10433;DHT22;5263;48.680;9.004;2023-09-08T14:23:29;34.30;66.80
10433;DHT22;5263;48.680;9.004;2023-09-08T14:25:55;33.40;69.00
10433;DHT22;5263;48.680;9.004;2023-09-08T14:28:20;33.80;68.30
10433;DHT22;5263;48.680;9.004;2023-09-08T14:30:46;33.10;68.10
10433;DHT22;5263;48.680;9.004;2023-09-08T14:33:12;32.80;70.90
10433;DHT22;5263;48.680;9.004;2023-09-08T14:35:42;32.00;71.60
10433;DHT22;5263;48.680;9.004;2023-09-08T14:38:09;30.80;75.40
10433;DHT22;5263;48.680;9.004;2023-09-08T14:40:34;30.90;74.40
10433;DHT22;5263;48.680;9.004;2023-09-08T14:43:00;32.10;73.60
10433;DHT22;5263;48.680;9.004;2023-09-08T14:45:25;33.30;70.40
10433;DHT22;5263;48.680;9.004;2023-09-08T14:47:53;35.20;67.50
10433;DHT22;5263;48.680;9.004;2023-09-08T14:50:19;36.10;64.20
10433;DHT22;5263;48.680;9.004;2023-09-08T14:52:44;35.20;63.90
10433;DHT22;5263;48.680;9.004;2023-09-08T14:55:10;34.60;64.60
10433;DHT22;5263;48.680;9.004;2023-09-08T14:57:35;35.50;64.20
10433;DHT22;5263;48.680;9.004;2023-09-08T15:00:02;34.20;65.80
10433;DHT22;5263;48.680;9.004;2023-09-08T15:02:30;34.60;65.60
10433;DHT22;5263;48.680;9.004;2023-09-08T15:04:56;34.20;66.20
10433;DHT22;5263;48.680;9.004;2023-09-08T15:07:22;33.60;66.80
10433;DHT22;5263;48.680;9.004;2023-09-08T15:09:47;32.90;68.30
10433;DHT22;5263;48.680;9.004;2023-09-08T15:12:13;32.60;68.60
10433;DHT22;5263;48.680;9.004;2023-09-08T15:14:38;32.20;70.70
10433;DHT22;5263;48.680;9.004;2023-09-08T15:17:05;32.10;69.90
10433;DHT22;5263;48.680;9.004;2023-09-08T15:19:30;31.60;72.90
10433;DHT22;5263;48.680;9.004;2023-09-08T15:21:56;32.00;72.30
10433;DHT22;5263;48.680;9.004;2023-09-08T15:24:22;32.80;70.80
10433;DHT22;5263;48.680;9.004;2023-09-08T15:26:47;33.10;69.90
10433;DHT22;5263;48.680;9.004;2023-09-08T15:29:14;32.90;68.70
10433;DHT22;5263;48.680;9.004;2023-09-08T15:31:41;32.30;69.90
10433;DHT22;5263;48.680;9.004;2023-09-08T15:34:06;32.20;70.80
10433;DHT22;5263;48.680;9.004;2023-09-08T15:36:33;31.80;71.80
10433;DHT22;5263;48.680;9.004;2023-09-08T15:38:58;31.40;72.80
10433;DHT22;5263;48.680;9.004;2023-09-08T15:41:24;30.80;74.30
10433;DHT22;5263;48.680;9.004;2023-09-08T15:43:51;31.30;72.60
10433;DHT22;5263;48.680;9.004;2023-09-08T15:46:17;31.10;73.00
10433;DHT22;5263;48.680;9.004;2023-09-08T15:48:43;30.60;74.40
10433;DHT22;5263;48.680;9.004;2023-09-08T15:51:08;30.20;76.20